createdAt,value
2023-03-29T00:01:00.437Z,101790.63
2023-03-29T00:03:29.018Z,101815.63
2023-03-29T00:06:03.263Z,101847.41
2023-03-29T00:08:31.821Z,101825.78
2023-03-29T00:10:59.713Z,101803.19
2023-03-29T00:13:30.805Z,101796.16
2023-03-29T00:15:58.024Z,101834.97
2023-03-29T00:18:25.580Z,101833.00
2023-03-29T00:21:00.699Z,101822.66
2023-03-29T00:23:28.340Z,101812.38
2023-03-29T00:25:56.703Z,101777.50
2023-03-29T00:28:24.417Z,101742.03
2023-03-29T00:30:51.997Z,101747.13
2023-03-29T00:33:20.878Z,101789.34
2023-03-29T00:35:48.730Z,101754.59
2023-03-29T00:38:16.573Z,101792.53
2023-03-29T00:40:48.556Z,101791.47
2023-03-29T00:43:17.054Z,101806.72
2023-03-29T00:45:44.253Z,101796.94
2023-03-29T00:48:14.089Z,101741.78
2023-03-29T00:50:47.564Z,101754.56
2023-03-29T00:53:36.552Z,101796.88
2023-03-29T00:56:06.365Z,101717.44
2023-03-29T00:58:44.097Z,101705.25
2023-03-29T01:01:19.690Z,101737.81
2023-03-29T01:03:55.974Z,101780.06
2023-03-29T01:06:27.356Z,101773.97
2023-03-29T01:08:58.767Z,101728.91
2023-03-29T01:11:39.783Z,101770.94
2023-03-29T01:14:19.480Z,101752.97
2023-03-29T01:16:47.119Z,101745.13
2023-03-29T01:19:19.674Z,101690.09
2023-03-29T01:21:53.601Z,101705.22
2023-03-29T01:24:33.798Z,101744.78
2023-03-29T01:27:17.427Z,101761.06
2023-03-29T01:30:01.524Z,101723.19
2023-03-29T01:32:35.214Z,101740.38
2023-03-29T01:35:48.657Z,101761.91
2023-03-29T01:38:29.740Z,101696.56
2023-03-29T01:40:57.035Z,101719.59
2023-03-29T01:43:33.804Z,101734.25
2023-03-29T01:46:10.807Z,101685.44
2023-03-29T01:49:02.134Z,101743.31
2023-03-29T01:51:32.403Z,101739.81
2023-03-29T01:54:11.736Z,101736.28
2023-03-29T01:56:42.528Z,101701.00
2023-03-29T01:59:18.062Z,101654.59
2023-03-29T02:01:59.921Z,101689.66
2023-03-29T02:04:35.432Z,101726.88
2023-03-29T02:07:07.531Z,101705.03
2023-03-29T02:09:38.831Z,101722.56
2023-03-29T02:12:09.458Z,101662.34
2023-03-29T02:14:36.813Z,101707.91
2023-03-29T02:17:24.017Z,101716.22
2023-03-29T02:19:58.330Z,101681.72
2023-03-29T02:22:32.082Z,101642.13
2023-03-29T02:25:02.020Z,101659.84
2023-03-29T02:27:30.384Z,101666.72
2023-03-29T02:29:57.888Z,101671.13
2023-03-29T02:32:40.473Z,101672.63
2023-03-29T02:35:14.609Z,101688.75
2023-03-29T02:37:49.832Z,101651.94
2023-03-29T02:40:18.609Z,101638.19
2023-03-29T02:42:47.672Z,101632.59
2023-03-29T02:45:17.399Z,101644.84
2023-03-29T02:47:53.672Z,101647.34
2023-03-29T02:50:21.957Z,101630.97
2023-03-29T02:52:59.753Z,101599.91
2023-03-29T02:55:35.003Z,101649.69
2023-03-29T02:58:09.352Z,101623.78
2023-03-29T03:00:39.573Z,101609.84
2023-03-29T03:03:08.578Z,101600.31
2023-03-29T03:05:38.502Z,101594.22
2023-03-29T03:08:07.553Z,101629.22
2023-03-29T03:10:36.118Z,101623.41
2023-03-29T03:13:03.798Z,101591.44
2023-03-29T03:15:31.477Z,101590.56
2023-03-29T03:18:04.978Z,101595.09
2023-03-29T03:20:32.038Z,101568.03
2023-03-29T03:22:59.536Z,101613.50
2023-03-29T03:25:26.717Z,101578.44
2023-03-29T03:27:54.442Z,101609.38
2023-03-29T03:30:22.317Z,101588.53
2023-03-29T03:32:49.998Z,101615.09
2023-03-29T03:35:19.686Z,101598.59
2023-03-29T03:37:47.174Z,101640.78
2023-03-29T03:40:14.413Z,101632.25
2023-03-29T03:42:43.717Z,101624.41
2023-03-29T03:45:10.990Z,101624.91
2023-03-29T03:47:38.570Z,101601.19
2023-03-29T03:50:07.715Z,101567.63
2023-03-29T03:52:35.007Z,101595.06
2023-03-29T03:55:03.139Z,101600.09
2023-03-29T03:57:30.302Z,101627.72
2023-03-29T04:00:01.105Z,101637.06
2023-03-29T04:02:28.508Z,101621.66
2023-03-29T04:04:57.115Z,101559.81
2023-03-29T04:07:25.643Z,101638.94
2023-03-29T04:09:53.358Z,101623.66
2023-03-29T04:12:20.999Z,101588.25
2023-03-29T04:14:49.205Z,101576.16
2023-03-29T04:17:16.689Z,101566.59
2023-03-29T04:19:46.575Z,101562.25
2023-03-29T04:22:13.916Z,101593.84
2023-03-29T04:24:41.611Z,101568.09
2023-03-29T04:27:09.571Z,101573.00
2023-03-29T04:29:38.320Z,101600.59
2023-03-29T04:32:05.842Z,101624.38
2023-03-29T04:34:34.245Z,101607.50
2023-03-29T04:37:02.937Z,101625.34
2023-03-29T04:39:32.444Z,101576.56
2023-03-29T04:42:00.188Z,101582.25
2023-03-29T04:44:27.104Z,101561.38
2023-03-29T04:46:58.542Z,101554.44
2023-03-29T04:49:26.664Z,101620.09
2023-03-29T04:51:54.612Z,101586.44
2023-03-29T04:54:21.862Z,101550.03
2023-03-29T04:56:49.260Z,101593.00
2023-03-29T04:59:16.248Z,101558.53
2023-03-29T05:01:43.935Z,101563.75
2023-03-29T05:04:12.717Z,101609.06
2023-03-29T05:06:41.792Z,101572.09
2023-03-29T05:09:09.007Z,101582.19
2023-03-29T05:11:37.387Z,101521.91
2023-03-29T05:14:09.670Z,101579.69
2023-03-29T05:16:39.835Z,101597.72
2023-03-29T05:19:07.449Z,101570.56
2023-03-29T05:21:35.441Z,101575.59
2023-03-29T05:24:03.097Z,101588.34
2023-03-29T05:26:31.406Z,101548.19
2023-03-29T05:28:58.810Z,101569.16
2023-03-29T05:31:25.892Z,101578.72
2023-03-29T05:33:53.044Z,101595.06
2023-03-29T05:36:21.432Z,101575.47
2023-03-29T05:38:48.559Z,101597.16
2023-03-29T05:41:16.551Z,101611.63
2023-03-29T05:43:43.475Z,101566.75
2023-03-29T05:46:10.770Z,101585.63
2023-03-29T05:48:38.420Z,101604.63
2023-03-29T05:51:06.807Z,101550.09
2023-03-29T05:53:34.770Z,101622.25
2023-03-29T05:56:02.828Z,101574.22
2023-03-29T05:58:30.940Z,101543.09
2023-03-29T06:00:58.137Z,101577.25
2023-03-29T06:03:28.565Z,101559.28
2023-03-29T06:06:08.043Z,101590.13
2023-03-29T06:08:35.575Z,101617.25
2023-03-29T06:11:06.093Z,101555.66
2023-03-29T06:13:34.280Z,101558.91
2023-03-29T06:16:02.860Z,101605.19
2023-03-29T06:18:33.884Z,101617.06
2023-03-29T06:21:05.668Z,101594.63
2023-03-29T06:23:33.107Z,101578.16
2023-03-29T06:26:01.569Z,101586.72
2023-03-29T06:28:44.565Z,101597.94
2023-03-29T06:31:13.188Z,101598.53
2023-03-29T06:33:42.697Z,101626.66
2023-03-29T06:36:14.453Z,101602.31
2023-03-29T06:38:41.894Z,101593.13
2023-03-29T06:41:12.973Z,101602.78
2023-03-29T06:43:41.021Z,101577.63
2023-03-29T06:46:13.153Z,101589.31
2023-03-29T06:48:41.884Z,101583.44
2023-03-29T06:51:17.694Z,101598.94
2023-03-29T06:53:46.383Z,101582.47
2023-03-29T06:56:13.540Z,101609.69
2023-03-29T06:58:41.358Z,101575.78
2023-03-29T07:01:09.466Z,101619.84
2023-03-29T07:03:36.591Z,101585.44
2023-03-29T07:06:10.513Z,101640.94
2023-03-29T07:08:51.976Z,101635.06
2023-03-29T07:11:20.730Z,101603.19
2023-03-29T07:13:49.565Z,101640.53
2023-03-29T07:16:19.443Z,101598.44
2023-03-29T07:18:48.205Z,101565.53
2023-03-29T07:21:15.319Z,101608.31
2023-03-29T07:23:42.649Z,101602.31
2023-03-29T07:26:10.539Z,101633.84
2023-03-29T07:28:38.062Z,101567.56
2023-03-29T07:31:11.307Z,101569.72
2023-03-29T07:33:39.865Z,101618.09
2023-03-29T07:36:07.436Z,101640.16
2023-03-29T07:38:34.484Z,101566.84
2023-03-29T07:41:05.786Z,101593.59
2023-03-29T07:43:35.454Z,101602.66
2023-03-29T07:46:05.845Z,101611.53
2023-03-29T07:48:34.237Z,101597.72
2023-03-29T07:51:01.683Z,101585.66
2023-03-29T07:53:30.977Z,101647.59
2023-03-29T07:55:58.652Z,101585.84
2023-03-29T07:58:28.771Z,101626.44
2023-03-29T08:00:55.751Z,101579.25
2023-03-29T08:03:23.140Z,101609.88
2023-03-29T08:05:50.294Z,101603.72
2023-03-29T08:08:17.703Z,101608.94
2023-03-29T08:10:45.200Z,101576.66
2023-03-29T08:13:14.526Z,101591.31
2023-03-29T08:15:47.064Z,101604.41
2023-03-29T08:18:16.040Z,101614.28
2023-03-29T08:20:43.839Z,101572.06
2023-03-29T08:23:11.643Z,101578.63
2023-03-29T08:25:40.523Z,101627.97
2023-03-29T08:28:07.480Z,101609.44
2023-03-29T08:30:34.785Z,101623.53
2023-03-29T08:33:01.880Z,101566.72
2023-03-29T08:35:29.280Z,101605.69
2023-03-29T08:37:56.684Z,101584.63
2023-03-29T08:40:27.635Z,101571.16
2023-03-29T08:43:12.502Z,101604.81
2023-03-29T08:45:48.421Z,101587.72
2023-03-29T08:48:29.316Z,101583.84
2023-03-29T08:51:09.357Z,101572.81
2023-03-29T08:53:50.487Z,101593.97
2023-03-29T08:56:23.492Z,101595.78
2023-03-29T08:58:55.451Z,101587.19
2023-03-29T09:01:31.831Z,101604.56
2023-03-29T09:04:15.186Z,101621.59
2023-03-29T09:06:44.960Z,101609.53
2023-03-29T09:09:17.480Z,101612.19
2023-03-29T09:12:02.977Z,101639.97
2023-03-29T09:15:02.932Z,101583.50
2023-03-29T09:17:36.309Z,101634.66
2023-03-29T09:20:26.658Z,101571.50
2023-03-29T09:23:35.107Z,101583.19
2023-03-29T09:26:24.908Z,101564.16
2023-03-29T09:29:30.538Z,101595.78
2023-03-29T09:31:59.580Z,101615.09
2023-03-29T09:34:41.168Z,101630.03
2023-03-29T09:37:35.918Z,101604.50
2023-03-29T09:40:11.273Z,101622.00
2023-03-29T09:42:39.962Z,101593.19
2023-03-29T09:45:10.094Z,101645.22
2023-03-29T09:47:46.273Z,101634.53
2023-03-29T09:50:30.226Z,101630.00
2023-03-29T09:52:59.568Z,101602.03
2023-03-29T09:55:33.904Z,101589.44
2023-03-29T09:58:07.981Z,101609.28
2023-03-29T10:00:35.086Z,101610.41
2023-03-29T10:03:06.947Z,101641.03
2023-03-29T10:05:40.250Z,101635.53
2023-03-29T10:08:28.010Z,101580.31
2023-03-29T10:10:58.984Z,101602.59
2023-03-29T10:13:32.514Z,101611.81
2023-03-29T10:16:09.442Z,101603.78
2023-03-29T10:18:42.579Z,101545.97
2023-03-29T10:21:15.916Z,101560.22
2023-03-29T10:23:44.988Z,101599.28
2023-03-29T10:26:32.432Z,101599.75
2023-03-29T10:29:02.298Z,101555.94
2023-03-29T10:31:36.823Z,101591.56
2023-03-29T10:34:08.589Z,101573.56
2023-03-29T10:36:36.235Z,101569.53
2023-03-29T10:39:10.108Z,101596.28
2023-03-29T10:41:38.285Z,101532.53
2023-03-29T10:44:06.298Z,101589.47
2023-03-29T10:46:42.787Z,101568.78
2023-03-29T10:49:21.984Z,101535.19
2023-03-29T10:51:52.171Z,101535.38
2023-03-29T10:54:22.845Z,101577.13
2023-03-29T10:56:58.590Z,101575.03
2023-03-29T10:59:40.431Z,101585.69
2023-03-29T11:02:13.592Z,101580.19
2023-03-29T11:04:50.647Z,101515.25
2023-03-29T11:07:31.661Z,101552.16
2023-03-29T11:10:28.972Z,101572.84
2023-03-29T11:13:24.559Z,101574.84
2023-03-29T11:16:28.686Z,101520.28
2023-03-29T11:19:33.921Z,101568.19
2023-03-29T11:22:29.511Z,101560.78
2023-03-29T11:25:09.069Z,101567.19
2023-03-29T11:27:47.071Z,101552.66
2023-03-29T11:30:33.061Z,101522.94
2023-03-29T11:33:02.196Z,101564.28
2023-03-29T11:35:38.787Z,101571.59
2023-03-29T11:38:20.917Z,101511.13
2023-03-29T11:40:59.716Z,101547.66
2023-03-29T11:43:42.811Z,101574.63
2023-03-29T11:46:33.148Z,101551.94
2023-03-29T11:49:15.592Z,101550.34
2023-03-29T11:51:51.227Z,101534.81
2023-03-29T11:54:25.839Z,101567.97
2023-03-29T11:57:20.707Z,101593.97
2023-03-29T12:00:14.761Z,101586.22
2023-03-29T12:02:50.962Z,101550.56
2023-03-29T12:05:28.205Z,101584.06
2023-03-29T12:08:07.754Z,101579.22
2023-03-29T12:10:43.112Z,101532.13
2023-03-29T12:13:43.067Z,101534.69
2023-03-29T12:16:26.376Z,101565.16
2023-03-29T12:18:57.861Z,101514.09
2023-03-29T12:21:29.571Z,101519.31
2023-03-29T12:23:58.459Z,101520.84
2023-03-29T12:27:03.587Z,101572.41
2023-03-29T12:29:45.428Z,101571.81
2023-03-29T12:32:27.552Z,101570.28
2023-03-29T12:35:16.451Z,101564.88
2023-03-29T12:38:04.762Z,101556.81
2023-03-29T12:40:41.926Z,101555.78
2023-03-29T12:43:15.971Z,101557.66
2023-03-29T12:45:51.258Z,101550.16
2023-03-29T12:48:25.596Z,101553.19
2023-03-29T12:50:53.381Z,101542.47
2023-03-29T12:53:25.009Z,101535.56
2023-03-29T12:56:08.750Z,101519.03
2023-03-29T12:58:59.053Z,101512.69
2023-03-29T13:01:29.984Z,101516.38
2023-03-29T13:03:59.651Z,101515.53
2023-03-29T13:06:51.050Z,101519.91
2023-03-29T13:09:25.087Z,101514.50
2023-03-29T13:12:05.999Z,101507.19
2023-03-29T13:14:37.422Z,101490.28
2023-03-29T13:19:50.668Z,101487.44
2023-03-29T13:22:41.446Z,101490.47
2023-03-29T13:25:36.687Z,101472.72
2023-03-29T13:28:22.511Z,101468.25
2023-03-29T13:30:58.539Z,101473.00
2023-03-29T13:33:41.791Z,101472.34
2023-03-29T13:36:17.897Z,101478.50
2023-03-29T13:38:53.862Z,101488.28
2023-03-29T13:41:38.741Z,101485.06
2023-03-29T13:44:23.182Z,101475.19
2023-03-29T13:47:05.762Z,101463.34
2023-03-29T13:49:34.768Z,101467.41
2023-03-29T13:52:01.597Z,101479.44
2023-03-29T13:54:43.397Z,101470.81
2023-03-29T13:57:20.125Z,101464.19
2023-03-29T13:59:57.508Z,101451.00
2023-03-29T14:02:39.702Z,101460.69
2023-03-29T14:05:09.541Z,101455.91
2023-03-29T14:07:39.717Z,101456.31
2023-03-29T14:10:07.930Z,101450.72
2023-03-29T14:12:40.454Z,101446.59
2023-03-29T14:15:21.420Z,101441.28
2023-03-29T14:17:48.864Z,101416.59
2023-03-29T14:20:16.815Z,101425.69
2023-03-29T14:22:44.316Z,101439.06
2023-03-29T14:25:17.414Z,101442.78
2023-03-29T14:27:44.553Z,101435.13
2023-03-29T14:30:24.115Z,101437.19
2023-03-29T14:32:51.726Z,101444.41
2023-03-29T14:35:18.592Z,101432.38
2023-03-29T14:37:48.099Z,101430.56
2023-03-29T14:40:19.896Z,101432.16
2023-03-29T14:42:48.457Z,101416.22
2023-03-29T14:45:20.983Z,101421.63
2023-03-29T14:47:48.803Z,101415.16
2023-03-29T14:50:24.451Z,101407.19
2023-03-29T14:52:52.380Z,101413.00
2023-03-29T14:55:23.544Z,101416.97
2023-03-29T14:57:53.912Z,101404.72
2023-03-29T15:00:31.933Z,101409.63
2023-03-29T15:03:01.861Z,101404.13
2023-03-29T15:05:34.032Z,101395.09
2023-03-29T15:08:02.320Z,101380.50
2023-03-29T15:10:32.748Z,101372.31
2023-03-29T15:13:02.609Z,101367.94
2023-03-29T15:15:32.933Z,101372.19
2023-03-29T15:18:01.093Z,101367.09
2023-03-29T15:20:37.677Z,101359.47
2023-03-29T15:23:08.962Z,101356.28
2023-03-29T15:25:52.518Z,101341.38
2023-03-29T15:28:33.242Z,101334.81
2023-03-29T15:31:07.927Z,101341.31
2023-03-29T15:33:40.442Z,101323.44
2023-03-29T15:36:09.934Z,101321.41
2023-03-29T15:41:10.753Z,101312.78
2023-03-29T15:43:38.076Z,101323.88
2023-03-29T15:46:05.477Z,101294.38
2023-03-29T15:48:34.079Z,101263.19
2023-03-29T15:51:06.226Z,101260.13
2023-03-29T15:53:34.144Z,101248.09
2023-03-29T15:56:04.314Z,101269.69
2023-03-29T15:58:33.834Z,101260.75
2023-03-29T16:01:19.333Z,101272.78
2023-03-29T16:03:48.069Z,101258.63
2023-03-29T16:06:16.256Z,101268.09
2023-03-29T16:08:43.680Z,101264.59
2023-03-29T16:11:11.664Z,101264.47
2023-03-29T16:13:39.202Z,101255.75
2023-03-29T16:16:07.102Z,101234.38
2023-03-29T16:18:35.864Z,101241.06
2023-03-29T16:21:04.041Z,101214.81
2023-03-29T16:23:31.642Z,101238.94
2023-03-29T16:26:04.341Z,101214.47
2023-03-29T16:28:31.974Z,101191.19
2023-03-29T16:30:59.664Z,101218.00
2023-03-29T16:33:27.154Z,101175.56
2023-03-29T16:35:53.975Z,101160.34
2023-03-29T16:38:21.804Z,101200.66
2023-03-29T16:40:49.978Z,101191.50
2023-03-29T16:43:18.940Z,101175.22
2023-03-29T16:45:46.061Z,101190.13
2023-03-29T16:48:19.082Z,101180.97
2023-03-29T16:50:51.250Z,101175.66
2023-03-29T16:53:19.132Z,101190.34
2023-03-29T16:55:49.738Z,101195.13
2023-03-29T16:58:16.725Z,101157.59
2023-03-29T17:00:47.916Z,101192.56
2023-03-29T17:03:18.130Z,101170.44
2023-03-29T17:05:52.116Z,101172.69
2023-03-29T17:08:21.606Z,101147.47
2023-03-29T17:10:54.438Z,101146.00
2023-03-29T17:13:26.181Z,101171.72
2023-03-29T17:15:55.286Z,101176.72
2023-03-29T17:18:25.102Z,101145.34
2023-03-29T17:20:55.499Z,101158.41
2023-03-29T17:23:25.479Z,101125.88
2023-03-29T17:25:57.101Z,101123.66
2023-03-29T17:28:24.324Z,101135.97
2023-03-29T17:30:52.620Z,101158.72
2023-03-29T17:33:22.859Z,101131.72
2023-03-29T17:35:50.291Z,101143.41
2023-03-29T17:38:17.616Z,101146.72
2023-03-29T17:40:44.912Z,101124.72
2023-03-29T17:43:12.227Z,101143.84
2023-03-29T17:45:40.726Z,101146.81
2023-03-29T17:48:08.844Z,101105.56
2023-03-29T17:50:36.408Z,101118.19
2023-03-29T17:53:08.018Z,101083.56
2023-03-29T17:55:34.927Z,101101.09
2023-03-29T17:58:04.932Z,101136.47
2023-03-29T18:00:33.115Z,101075.38
2023-03-29T18:03:02.178Z,101071.97
2023-03-29T18:05:29.280Z,101111.69
2023-03-29T18:07:58.719Z,101080.16
2023-03-29T18:10:26.142Z,101101.28
2023-03-29T18:12:54.908Z,101078.84
2023-03-29T18:15:24.192Z,101063.44
2023-03-29T18:17:51.522Z,101050.06
2023-03-29T18:20:21.184Z,101076.56
2023-03-29T18:22:50.569Z,101031.38
2023-03-29T18:25:18.407Z,101098.88
2023-03-29T18:27:45.929Z,101081.97
2023-03-29T18:30:16.965Z,101072.63
2023-03-29T18:32:44.091Z,101072.84
2023-03-29T18:35:15.585Z,101050.69
2023-03-29T18:37:43.702Z,101038.91
2023-03-29T18:40:10.779Z,101094.94
2023-03-29T18:42:38.292Z,101094.63
2023-03-29T18:45:06.283Z,101045.94
2023-03-29T18:47:33.402Z,101076.88
2023-03-29T18:50:03.639Z,101099.53
2023-03-29T18:52:30.668Z,101065.81
2023-03-29T18:54:57.653Z,101042.75
2023-03-29T18:57:26.057Z,101069.09
2023-03-29T18:59:55.197Z,101087.50
2023-03-29T19:02:22.404Z,101037.03
2023-03-29T19:04:49.516Z,101041.59
2023-03-29T19:07:21.050Z,101028.22
2023-03-29T19:09:50.011Z,101058.06
2023-03-29T19:12:18.443Z,101087.06
2023-03-29T19:14:46.810Z,101036.06
2023-03-29T19:17:13.847Z,101068.38
2023-03-29T19:19:42.310Z,101033.09
2023-03-29T19:22:09.814Z,101055.94
2023-03-29T19:24:37.112Z,101073.69
2023-03-29T19:27:05.328Z,101018.22
2023-03-29T19:29:34.206Z,101020.78
2023-03-29T19:32:01.960Z,101044.56
2023-03-29T19:34:31.518Z,101045.19
2023-03-29T19:37:01.187Z,101007.69
2023-03-29T19:39:30.175Z,101021.72
2023-03-29T19:41:57.396Z,100978.88
2023-03-29T19:44:24.963Z,101008.22
2023-03-29T19:46:52.253Z,100981.34
2023-03-29T19:49:19.167Z,100961.25
2023-03-29T19:51:46.296Z,100960.09
2023-03-29T19:54:14.166Z,101001.72
2023-03-29T19:56:43.169Z,101009.25
2023-03-29T19:59:11.598Z,100970.72
2023-03-29T20:04:31.468Z,100951.41
2023-03-29T20:07:01.890Z,100979.31
2023-03-29T20:09:28.925Z,100952.25
2023-03-29T20:11:56.082Z,100930.81
2023-03-29T20:14:31.798Z,100927.59
2023-03-29T20:17:00.589Z,100931.41
2023-03-29T20:19:30.045Z,100955.72
2023-03-29T20:22:00.287Z,100897.75
2023-03-29T20:24:27.067Z,100911.22
2023-03-29T20:26:54.272Z,100953.25
2023-03-29T20:29:21.321Z,100886.91
2023-03-29T20:31:54.223Z,100929.22
2023-03-29T20:34:23.158Z,100873.81
2023-03-29T20:36:50.031Z,100921.97
2023-03-29T20:39:20.308Z,100881.75
2023-03-29T20:41:47.961Z,100864.00
2023-03-29T20:44:16.997Z,100873.84
2023-03-29T20:47:04.656Z,100864.06
2023-03-29T20:49:39.117Z,100853.44
2023-03-29T20:52:19.394Z,100837.38
2023-03-29T20:54:46.684Z,100838.75
2023-03-29T20:57:16.845Z,100864.00
2023-03-29T20:59:47.119Z,100859.28
2023-03-29T21:02:21.193Z,100849.13
2023-03-29T21:04:51.904Z,100813.00
2023-03-29T21:07:20.362Z,100817.03
2023-03-29T21:09:50.658Z,100835.28
2023-03-29T21:12:18.292Z,100826.81
2023-03-29T21:14:49.542Z,100805.50
2023-03-29T21:17:16.691Z,100843.03
2023-03-29T21:19:43.621Z,100846.78
2023-03-29T21:22:13.787Z,100806.59
2023-03-29T21:24:41.777Z,100795.22
2023-03-29T21:27:08.599Z,100844.72
2023-03-29T21:29:36.906Z,100808.41
2023-03-29T21:32:04.822Z,100793.75
2023-03-29T21:34:31.710Z,100755.13
2023-03-29T21:37:22.006Z,100791.25
2023-03-29T21:39:49.104Z,100794.41
2023-03-29T21:42:17.527Z,100806.25
2023-03-29T21:44:46.392Z,100781.94
2023-03-29T21:47:17.597Z,100753.94
2023-03-29T21:49:44.452Z,100792.84
2023-03-29T21:52:11.181Z,100780.50
2023-03-29T21:54:40.955Z,100801.34
2023-03-29T21:57:09.420Z,100751.66
2023-03-29T21:59:36.186Z,100741.16
2023-03-29T22:02:03.518Z,100759.47
2023-03-29T22:04:37.131Z,100783.81
2023-03-29T22:07:06.977Z,100791.06
2023-03-29T22:09:38.089Z,100758.00
2023-03-29T22:12:06.039Z,100764.53
2023-03-29T22:14:36.816Z,100784.84
2023-03-29T22:17:07.730Z,100755.13
2023-03-29T22:19:43.600Z,100771.00
2023-03-29T22:22:15.050Z,100773.78
2023-03-29T22:24:42.418Z,100761.94
2023-03-29T22:27:11.908Z,100768.41
2023-03-29T22:29:42.488Z,100783.16
2023-03-29T22:32:10.632Z,100756.44
2023-03-29T22:34:37.888Z,100736.97
2023-03-29T22:37:06.509Z,100732.41
2023-03-29T22:39:37.201Z,100742.94
2023-03-29T22:42:05.447Z,100736.81
2023-03-29T22:44:34.034Z,100712.63
2023-03-29T22:47:01.165Z,100714.69
2023-03-29T22:49:28.341Z,100734.53
2023-03-29T22:51:55.564Z,100756.69
2023-03-29T22:54:26.890Z,100729.00
2023-03-29T22:56:54.592Z,100714.50
2023-03-29T22:59:22.264Z,100721.66
2023-03-29T23:01:50.618Z,100727.09
2023-03-29T23:04:21.142Z,100692.63
2023-03-29T23:07:26.407Z,100702.41
2023-03-29T23:09:56.267Z,100667.44
2023-03-29T23:12:24.267Z,100730.44
2023-03-29T23:14:53.175Z,100700.97
2023-03-29T23:17:21.144Z,100678.94
2023-03-29T23:19:51.251Z,100671.91
2023-03-29T23:22:19.631Z,100716.41
2023-03-29T23:24:47.414Z,100659.56
2023-03-29T23:27:16.197Z,100701.78
2023-03-29T23:29:47.716Z,100690.19
2023-03-29T23:32:16.065Z,100668.75
2023-03-29T23:34:43.075Z,100706.63
2023-03-29T23:37:12.276Z,100674.72
2023-03-29T23:39:39.762Z,100691.50
2023-03-29T23:42:08.256Z,100677.97
2023-03-29T23:44:34.983Z,100686.19
2023-03-29T23:47:04.415Z,100696.69
2023-03-29T23:49:31.877Z,100673.38
2023-03-29T23:52:06.086Z,100703.72
2023-03-29T23:54:32.885Z,100673.50
2023-03-29T23:57:03.350Z,100674.47
2023-03-29T23:59:37.874Z,100666.72
